createdAt,value
2019-05-28T00:00:30.409Z,2.23
2019-05-28T00:02:57.162Z,2.47
2019-05-28T00:05:24.028Z,2.40
2019-05-28T00:07:51.476Z,2.13
2019-05-28T00:10:18.985Z,2.10
2019-05-28T00:12:45.812Z,2.27
2019-05-28T00:15:12.610Z,2.27
2019-05-28T00:17:39.330Z,2.30
2019-05-28T00:20:06.087Z,2.40
2019-05-28T00:22:32.891Z,2.80
2019-05-28T00:24:59.584Z,2.50
2019-05-28T00:27:26.284Z,2.33
2019-05-28T00:29:53.013Z,2.50
2019-05-28T00:32:19.810Z,2.70
2019-05-28T00:34:46.571Z,3.27
2019-05-28T00:37:13.272Z,3.27
2019-05-28T00:39:40.073Z,3.03
2019-05-28T00:42:07.545Z,3.33
2019-05-28T00:44:34.247Z,3.20
2019-05-28T00:47:01.019Z,2.70
2019-05-28T00:49:27.758Z,2.40
2019-05-28T00:51:54.504Z,3.00
2019-05-28T00:54:21.280Z,2.43
2019-05-28T00:56:48.818Z,2.57
2019-05-28T00:59:15.623Z,2.90
2019-05-28T01:01:42.382Z,2.80
2019-05-28T01:04:09.161Z,2.40
2019-05-28T01:06:35.977Z,2.40
2019-05-28T01:09:02.774Z,2.57
2019-05-28T01:11:29.540Z,2.30
2019-05-28T01:13:56.223Z,2.37
2019-05-28T01:16:24.250Z,2.33
2019-05-28T01:18:51.293Z,2.47
2019-05-28T01:21:18.059Z,2.40
2019-05-28T01:23:44.762Z,2.57
2019-05-28T01:26:12.198Z,2.37
2019-05-28T01:28:38.901Z,2.17
2019-05-28T01:31:05.624Z,1.80
2019-05-28T01:33:32.322Z,2.30
2019-05-28T01:35:59.226Z,1.83
2019-05-28T01:38:25.918Z,1.90
2019-05-28T01:40:52.610Z,1.93
2019-05-28T01:43:19.306Z,1.97
2019-05-28T01:45:46.120Z,2.20
2019-05-28T01:48:13.560Z,1.90
2019-05-28T01:50:40.294Z,1.93
2019-05-28T01:53:07.218Z,1.87
2019-05-28T01:55:33.947Z,2.17
2019-05-28T01:58:00.712Z,2.03
2019-05-28T02:00:27.411Z,2.37
2019-05-28T02:02:54.126Z,2.20
2019-05-28T02:05:21.240Z,2.10
2019-05-28T02:07:48.405Z,2.07
2019-05-28T02:10:15.125Z,1.83
2019-05-28T02:12:41.869Z,1.80
2019-05-28T02:15:08.595Z,1.90
2019-05-28T02:17:35.333Z,2.30
2019-05-28T02:20:02.072Z,2.00
2019-05-28T02:22:28.828Z,2.40
2019-05-28T02:24:55.520Z,2.20
2019-05-28T02:27:22.956Z,2.20
2019-05-28T02:29:50.428Z,2.33
2019-05-28T02:32:17.892Z,2.30
2019-05-28T02:34:44.613Z,1.80
2019-05-28T02:37:12.043Z,2.00
2019-05-28T02:39:38.757Z,2.20
2019-05-28T02:42:05.507Z,2.13
2019-05-28T02:44:32.280Z,2.20
2019-05-28T02:46:59.031Z,2.33
2019-05-28T02:49:26.463Z,2.30
2019-05-28T02:51:53.261Z,2.03
2019-05-28T02:54:20.020Z,2.10
2019-05-28T02:56:46.752Z,2.00
2019-05-28T02:59:13.488Z,2.40
2019-05-28T03:01:44.529Z,1.93
2019-05-28T03:04:07.904Z,2.13
2019-05-28T03:06:34.656Z,2.00
2019-05-28T03:09:01.478Z,2.00
2019-05-28T03:11:28.222Z,2.10
2019-05-28T03:13:54.929Z,2.13
2019-05-28T03:16:22.448Z,1.93
2019-05-28T03:18:49.924Z,2.13
2019-05-28T03:21:16.732Z,2.30
2019-05-28T03:23:43.438Z,2.13
2019-05-28T03:26:10.189Z,2.10
2019-05-28T03:28:36.966Z,2.00
2019-05-28T03:31:03.715Z,2.13
2019-05-28T03:33:30.468Z,2.00
2019-05-28T03:35:57.418Z,2.20
2019-05-28T03:38:24.171Z,2.30
2019-05-28T03:40:51.618Z,2.23
2019-05-28T03:43:18.346Z,2.00
2019-05-28T03:45:45.048Z,2.33
2019-05-28T03:48:11.779Z,2.13
2019-05-28T03:50:38.551Z,1.87
2019-05-28T03:53:06.621Z,2.40
2019-05-28T03:55:34.234Z,2.10
2019-05-28T03:58:01.089Z,2.30
2019-05-28T04:00:27.800Z,1.93
2019-05-28T04:02:55.334Z,2.00
2019-05-28T04:05:22.110Z,2.20
2019-05-28T04:07:49.598Z,1.87
2019-05-28T04:10:17.161Z,1.73
2019-05-28T04:12:43.887Z,2.00
2019-05-28T04:15:10.629Z,1.80
2019-05-28T04:17:37.398Z,1.80
2019-05-28T04:20:04.111Z,1.80
2019-05-28T04:22:30.799Z,1.70
2019-05-28T04:24:57.551Z,2.10
2019-05-28T04:27:24.257Z,2.40
2019-05-28T04:29:51.189Z,1.90
2019-05-28T04:32:18.020Z,1.90
2019-05-28T04:34:44.910Z,2.20
2019-05-28T04:37:11.679Z,2.10
2019-05-28T04:39:39.227Z,1.53
2019-05-28T04:42:06.721Z,1.73
2019-05-28T04:44:33.407Z,1.90
2019-05-28T04:47:00.114Z,1.70
2019-05-28T04:49:27.465Z,2.13
2019-05-28T04:51:54.357Z,1.70
2019-05-28T04:54:21.841Z,1.50
2019-05-28T04:56:49.297Z,1.67
2019-05-28T04:59:16.791Z,1.70
2019-05-28T05:01:43.500Z,1.60
2019-05-28T05:04:10.263Z,1.23
2019-05-28T05:06:37.051Z,1.83
2019-05-28T05:09:03.825Z,1.98
2019-05-28T05:11:31.350Z,1.55
2019-05-28T05:13:58.053Z,1.83
2019-05-28T05:16:24.786Z,1.50
2019-05-28T05:18:51.536Z,1.77
2019-05-28T05:21:18.238Z,1.67
2019-05-28T05:23:45.695Z,1.75
2019-05-28T05:26:12.469Z,1.60
2019-05-28T05:28:39.192Z,2.10
2019-05-28T05:31:06.024Z,2.10
2019-05-28T05:33:33.562Z,2.00
2019-05-28T05:36:01.024Z,1.55
2019-05-28T05:38:28.469Z,1.95
2019-05-28T05:40:55.185Z,1.98
2019-05-28T05:43:21.894Z,1.52
2019-05-28T05:45:48.609Z,1.70
2019-05-28T05:48:16.099Z,1.80
2019-05-28T05:53:40.540Z,1.60
2019-05-28T05:56:07.254Z,2.35
2019-05-28T05:58:33.964Z,1.98
2019-05-28T06:01:00.750Z,1.58
2019-05-28T06:03:39.907Z,1.58
2019-05-28T06:05:54.310Z,1.75
2019-05-28T06:08:21.108Z,1.65
2019-05-28T06:10:48.621Z,1.70
2019-05-28T06:13:15.365Z,1.67
2019-05-28T06:15:42.106Z,1.70
2019-05-28T06:18:08.866Z,1.40
2019-05-28T06:20:35.634Z,1.58
2019-05-28T06:23:02.348Z,1.70
2019-05-28T06:25:29.080Z,1.52
2019-05-28T06:27:55.900Z,1.70
2019-05-28T06:30:22.646Z,1.40
2019-05-28T06:32:49.358Z,1.75
2019-05-28T06:35:16.146Z,1.67
2019-05-28T06:37:42.910Z,1.83
2019-05-28T06:40:09.625Z,1.75
2019-05-28T06:42:39.351Z,1.62
2019-05-28T06:45:05.939Z,1.90
2019-05-28T06:47:32.621Z,1.90
2019-05-28T06:49:59.328Z,1.75
2019-05-28T06:52:26.041Z,1.75
2019-05-28T06:54:52.786Z,1.77
2019-05-28T06:57:22.725Z,1.90
2019-05-28T06:59:46.317Z,2.03
2019-05-28T07:02:13.044Z,1.75
2019-05-28T07:04:39.772Z,1.62
2019-05-28T07:07:06.610Z,1.60
2019-05-28T07:09:33.321Z,1.70
2019-05-28T07:12:00.747Z,1.98
2019-05-28T07:14:27.563Z,1.80
2019-05-28T07:16:54.271Z,1.70
2019-05-28T07:19:24.576Z,2.00
2019-05-28T07:21:47.750Z,2.10
2019-05-28T07:24:14.496Z,1.90
2019-05-28T07:26:41.248Z,1.70
2019-05-28T07:29:07.945Z,1.50
2019-05-28T07:31:35.379Z,1.55
2019-05-28T07:34:02.919Z,1.70
2019-05-28T07:36:29.617Z,1.75
2019-05-28T07:38:56.376Z,1.75
2019-05-28T07:41:23.051Z,1.58
2019-05-28T07:43:49.841Z,2.05
2019-05-28T07:46:16.569Z,1.70
2019-05-28T07:48:44.037Z,1.70
2019-05-28T07:51:11.495Z,1.92
2019-05-28T07:53:40.518Z,1.48
2019-05-28T07:56:05.061Z,1.40
2019-05-28T07:58:31.850Z,1.58
2019-05-28T08:00:58.545Z,1.50
2019-05-28T08:03:25.299Z,1.77
2019-05-28T08:05:52.000Z,1.58
2019-05-28T08:08:18.796Z,1.42
2019-05-28T08:10:45.574Z,1.45
2019-05-28T08:13:12.297Z,1.60
2019-05-28T08:15:39.798Z,1.33
2019-05-28T08:18:06.534Z,1.60
2019-05-28T08:20:34.107Z,1.50
2019-05-28T08:23:01.589Z,1.62
2019-05-28T08:25:46.203Z,1.50
2019-05-28T08:27:55.230Z,1.20
2019-05-28T08:30:21.975Z,1.55
2019-05-28T08:32:48.675Z,1.40
2019-05-28T08:35:15.391Z,1.58
2019-05-28T08:37:42.113Z,1.48
2019-05-28T08:40:08.907Z,1.35
2019-05-28T08:42:35.610Z,1.30
2019-05-28T08:45:02.360Z,1.45
2019-05-28T08:47:29.094Z,1.30
2019-05-28T08:49:55.799Z,1.48
2019-05-28T08:52:23.288Z,1.33
2019-05-28T08:54:51.284Z,1.25
2019-05-28T08:57:16.772Z,1.30
2019-05-28T08:59:43.475Z,1.40
2019-05-28T09:02:26.465Z,1.33
2019-05-28T09:04:37.799Z,1.33
2019-05-28T09:07:04.571Z,1.52
2019-05-28T09:09:31.258Z,1.55
2019-05-28T09:11:58.743Z,1.15
2019-05-28T09:14:25.458Z,1.30
2019-05-28T09:16:52.261Z,1.10
2019-05-28T09:19:18.989Z,1.17
2019-05-28T09:21:45.670Z,1.50
2019-05-28T09:24:12.466Z,1.40
2019-05-28T09:26:39.187Z,1.52
2019-05-28T09:29:05.900Z,1.40
2019-05-28T09:31:32.610Z,1.25
2019-05-28T09:33:59.317Z,1.35
2019-05-28T09:36:26.041Z,1.37
2019-05-28T09:38:53.496Z,1.33
2019-05-28T09:41:20.922Z,1.60
2019-05-28T09:43:47.681Z,1.33
2019-05-28T09:46:15.110Z,1.35
2019-05-28T09:48:41.837Z,1.05
2019-05-28T09:51:08.531Z,1.27
2019-05-28T09:53:35.949Z,1.00
2019-05-28T09:56:02.769Z,1.50
2019-05-28T09:58:29.474Z,1.30
2019-05-28T10:00:58.947Z,1.35
2019-05-28T10:03:24.526Z,1.10
2019-05-28T10:06:02.024Z,1.30
2019-05-28T10:08:17.990Z,1.33
2019-05-28T10:10:44.788Z,1.33
2019-05-28T10:13:11.478Z,1.58
2019-05-28T10:15:38.209Z,1.23
2019-05-28T10:18:05.000Z,1.42
2019-05-28T10:20:31.805Z,1.40
2019-05-28T10:22:58.510Z,1.60
2019-05-28T10:25:25.281Z,1.25
2019-05-28T10:28:01.073Z,1.50
2019-05-28T10:30:18.821Z,1.17
2019-05-28T10:32:45.482Z,1.27
2019-05-28T10:35:12.253Z,2.05
2019-05-28T10:37:38.934Z,1.00
2019-05-28T10:40:05.713Z,1.25
2019-05-28T10:42:32.471Z,1.15
2019-05-28T10:44:59.139Z,1.30
2019-05-28T10:47:25.878Z,1.10
2019-05-28T10:49:52.720Z,1.40
2019-05-28T10:52:19.411Z,1.33
2019-05-28T10:54:46.122Z,1.23
2019-05-28T10:57:12.823Z,1.10
2019-05-28T10:59:39.530Z,1.30
2019-05-28T11:02:06.247Z,1.30
2019-05-28T11:04:33.033Z,1.37
2019-05-28T11:06:59.704Z,1.00
2019-05-28T11:09:26.413Z,1.23
2019-05-28T11:11:53.121Z,1.17
2019-05-28T11:14:20.603Z,1.10
2019-05-28T11:16:47.297Z,1.12
2019-05-28T11:19:14.071Z,0.95
2019-05-28T11:21:40.788Z,1.17
2019-05-28T11:24:07.530Z,0.95
2019-05-28T11:26:35.059Z,1.12
2019-05-28T11:29:01.766Z,1.20
2019-05-28T11:31:28.986Z,0.90
2019-05-28T11:33:56.560Z,1.50
2019-05-28T11:36:23.259Z,1.10
2019-05-28T11:38:49.965Z,1.33
2019-05-28T11:41:16.698Z,0.70
2019-05-28T11:43:43.458Z,1.27
2019-05-28T11:46:10.233Z,1.05
2019-05-28T11:48:36.932Z,1.02
2019-05-28T11:51:03.693Z,1.10
2019-05-28T11:53:30.483Z,0.90
2019-05-28T11:55:57.215Z,1.10
2019-05-28T11:58:24.677Z,1.27
2019-05-28T12:00:51.461Z,1.00
2019-05-28T12:03:18.169Z,0.95
2019-05-28T12:05:44.843Z,1.08
2019-05-28T12:08:11.662Z,0.98
2019-05-28T12:10:38.402Z,0.98
2019-05-28T12:13:05.136Z,1.20
2019-05-28T12:15:31.891Z,1.02
2019-05-28T12:17:58.690Z,1.08
2019-05-28T12:20:25.502Z,1.05
2019-05-28T12:23:09.599Z,1.30
2019-05-28T12:25:19.799Z,0.82
2019-05-28T12:28:00.751Z,0.95
2019-05-28T12:30:27.493Z,0.90
2019-05-28T12:32:54.206Z,1.30
2019-05-28T12:35:28.475Z,1.20
2019-05-28T12:37:50.088Z,1.37
2019-05-28T12:40:14.644Z,1.10
2019-05-28T12:42:41.433Z,1.43
2019-05-28T12:45:10.223Z,1.20
2019-05-28T12:47:35.860Z,1.03
2019-05-28T12:50:18.144Z,1.10
2019-05-28T12:52:31.889Z,1.10
2019-05-28T12:54:59.339Z,0.90
2019-05-28T12:57:26.051Z,0.90
2019-05-28T12:59:52.769Z,1.30
2019-05-28T13:02:19.451Z,1.00
2019-05-28T13:04:46.225Z,1.30
2019-05-28T13:07:12.969Z,0.80
2019-05-28T13:09:41.798Z,1.37
2019-05-28T13:12:08.754Z,1.10
2019-05-28T13:14:35.499Z,1.10
2019-05-28T13:17:03.149Z,1.10
2019-05-28T13:19:29.858Z,0.70
2019-05-28T13:21:56.598Z,0.90
2019-05-28T13:24:23.377Z,0.70
2019-05-28T13:26:50.101Z,1.20
2019-05-28T13:29:16.851Z,1.00
2019-05-28T13:31:43.623Z,1.20
2019-05-28T13:34:10.327Z,1.33
2019-05-28T13:36:37.035Z,0.97
2019-05-28T13:39:03.871Z,1.10
2019-05-28T13:41:30.567Z,1.10
2019-05-28T13:43:58.083Z,1.00
2019-05-28T13:46:25.610Z,0.93
2019-05-28T13:48:53.053Z,0.90
2019-05-28T13:51:20.572Z,0.90
2019-05-28T13:53:47.282Z,0.90
2019-05-28T13:56:14.027Z,1.00
2019-05-28T13:58:40.852Z,0.80
2019-05-28T14:01:08.342Z,1.10
2019-05-28T14:03:35.070Z,1.03
2019-05-28T14:06:01.793Z,0.70
2019-05-28T14:08:44.756Z,0.80
2019-05-28T14:10:56.155Z,0.67
2019-05-28T14:13:22.886Z,0.80
2019-05-28T14:15:49.591Z,0.70
2019-05-28T14:18:16.329Z,0.77
2019-05-28T14:20:43.116Z,1.00
2019-05-28T14:23:09.845Z,1.05
2019-05-28T14:25:37.317Z,0.98
2019-05-28T14:28:04.103Z,0.70
2019-05-28T14:30:31.624Z,1.10
2019-05-28T14:32:58.360Z,0.70
2019-05-28T14:35:25.070Z,0.80
2019-05-28T14:37:51.804Z,0.60
2019-05-28T14:40:18.566Z,0.70
2019-05-28T14:42:45.411Z,0.80
2019-05-28T14:45:12.164Z,0.80
2019-05-28T14:47:38.962Z,0.57
2019-05-28T14:50:05.738Z,0.80
2019-05-28T14:52:32.436Z,0.70
2019-05-28T14:54:59.133Z,0.60
2019-05-28T14:57:25.991Z,0.80
2019-05-28T14:59:53.476Z,0.83
2019-05-28T15:02:20.199Z,0.77
2019-05-28T15:04:47.005Z,0.93
2019-05-28T15:07:14.478Z,0.80
2019-05-28T15:09:41.274Z,1.00
2019-05-28T15:12:07.999Z,0.80
2019-05-28T15:14:34.748Z,1.10
2019-05-28T15:17:01.563Z,0.80
2019-05-28T15:19:28.311Z,0.60
2019-05-28T15:21:55.063Z,1.20
2019-05-28T15:24:21.900Z,0.97
2019-05-28T15:26:49.367Z,1.10
2019-05-28T15:29:16.785Z,1.20
2019-05-28T15:31:43.523Z,1.17
2019-05-28T15:34:10.252Z,1.10
2019-05-28T15:36:36.917Z,1.10
2019-05-28T15:39:04.485Z,1.20
2019-05-28T15:41:31.959Z,1.27
2019-05-28T15:43:58.711Z,1.10
2019-05-28T15:46:25.402Z,1.27
2019-05-28T15:48:52.106Z,1.40
2019-05-28T15:51:18.837Z,1.40
2019-05-28T15:53:45.540Z,1.40
2019-05-28T15:56:13.006Z,1.50
2019-05-28T15:58:40.494Z,1.40
2019-05-28T16:01:07.234Z,1.20
2019-05-28T16:03:33.996Z,1.17
2019-05-28T16:06:00.728Z,1.63
2019-05-28T16:08:27.466Z,1.33
2019-05-28T16:10:54.205Z,1.50
2019-05-28T16:13:20.917Z,1.20
2019-05-28T16:15:47.704Z,1.33
2019-05-28T16:18:14.471Z,1.50
2019-05-28T16:20:41.164Z,1.23
2019-05-28T16:23:07.913Z,1.30
2019-05-28T16:25:34.575Z,1.37
2019-05-28T16:28:01.257Z,1.13
2019-05-28T16:30:28.763Z,1.27
2019-05-28T16:32:55.483Z,0.90
2019-05-28T16:35:22.204Z,0.60
2019-05-28T16:37:49.015Z,1.00
2019-05-28T16:40:16.583Z,0.70
2019-05-28T16:42:43.330Z,1.23
2019-05-28T16:45:10.844Z,1.30
2019-05-28T16:47:37.572Z,1.00
2019-05-28T16:50:04.423Z,1.30
2019-05-28T16:52:31.117Z,1.20
2019-05-28T16:54:57.803Z,1.00
2019-05-28T16:57:24.514Z,1.03
2019-05-28T16:59:51.236Z,1.03
2019-05-28T17:02:18.689Z,1.03
2019-05-28T17:04:45.398Z,1.07
2019-05-28T17:07:12.891Z,1.17
2019-05-28T17:09:39.661Z,1.13
2019-05-28T17:12:06.405Z,1.20
2019-05-28T17:14:33.114Z,1.23
2019-05-28T17:17:02.968Z,1.10
2019-05-28T17:19:26.775Z,1.23
2019-05-28T17:21:54.636Z,1.00
2019-05-28T17:24:21.457Z,1.07
2019-05-28T17:26:48.161Z,1.10
2019-05-28T17:29:14.909Z,1.20
2019-05-28T17:31:41.590Z,1.00
2019-05-28T17:34:08.314Z,1.07
2019-05-28T17:36:35.843Z,0.90
2019-05-28T17:39:03.407Z,1.00
2019-05-28T17:41:30.102Z,1.20
2019-05-28T17:43:57.572Z,1.20
2019-05-28T17:46:25.385Z,0.90
2019-05-28T17:48:52.096Z,1.10
2019-05-28T17:51:19.535Z,1.10
2019-05-28T17:54:10.582Z,0.93
2019-05-28T17:56:41.514Z,1.20
2019-05-28T17:59:08.192Z,1.03
2019-05-28T18:01:34.888Z,1.10
2019-05-28T18:04:01.632Z,1.27
2019-05-28T18:06:28.321Z,1.00
2019-05-28T18:08:55.022Z,1.00
2019-05-28T18:11:23.555Z,1.13
2019-05-28T18:13:51.005Z,1.03
2019-05-28T18:16:17.845Z,1.07
2019-05-28T18:18:44.681Z,1.10
2019-05-28T18:21:12.194Z,0.80
2019-05-28T18:23:38.883Z,1.20
2019-05-28T18:26:05.677Z,1.13
2019-05-28T18:28:32.388Z,0.90
2019-05-28T18:30:59.887Z,1.00
2019-05-28T18:33:26.548Z,0.97
2019-05-28T18:35:53.590Z,1.10
2019-05-28T18:38:20.349Z,0.90
2019-05-28T18:40:47.056Z,1.03
2019-05-28T18:43:13.820Z,1.13
2019-05-28T18:45:40.539Z,1.00
2019-05-28T18:48:07.502Z,1.10
2019-05-28T18:50:34.209Z,1.23
2019-05-28T18:53:01.063Z,1.20
2019-05-28T18:55:27.743Z,1.10
2019-05-28T18:57:54.511Z,1.50
2019-05-28T19:00:21.392Z,1.30
2019-05-28T19:02:48.084Z,1.27
2019-05-28T19:05:14.889Z,1.33
2019-05-28T19:07:41.573Z,1.30
2019-05-28T19:10:09.065Z,1.50
2019-05-28T19:12:35.922Z,1.60
2019-05-28T19:15:05.775Z,1.80
2019-05-28T19:17:32.682Z,1.30
2019-05-28T19:20:00.203Z,1.30
2019-05-28T19:22:26.939Z,1.70
2019-05-28T19:24:57.300Z,1.60
2019-05-28T19:27:22.039Z,1.60
2019-05-28T19:29:50.611Z,1.77
2019-05-28T19:32:16.230Z,1.43
2019-05-28T19:34:43.754Z,1.53
2019-05-28T19:37:10.529Z,1.50
2019-05-28T19:39:39.180Z,1.40
2019-05-28T19:42:04.270Z,1.30
2019-05-28T19:44:30.986Z,1.43
2019-05-28T19:46:57.752Z,1.47
2019-05-28T19:49:25.558Z,1.40
2019-05-28T19:51:52.614Z,1.30
2019-05-28T19:54:20.779Z,1.50
2019-05-28T19:56:48.250Z,1.40
2019-05-28T19:59:15.228Z,1.40
2019-05-28T20:01:42.749Z,1.60
2019-05-28T20:04:10.169Z,1.60
2019-05-28T20:06:36.880Z,1.63
2019-05-28T20:09:03.672Z,1.63
2019-05-28T20:11:30.419Z,1.40
2019-05-28T20:13:57.160Z,1.33
2019-05-28T20:16:23.866Z,1.60
2019-05-28T20:18:51.344Z,1.60
2019-05-28T20:21:18.249Z,1.50
2019-05-28T20:23:45.817Z,1.80
2019-05-28T20:26:11.819Z,1.23
2019-05-28T20:28:38.517Z,1.30
2019-05-28T20:31:05.991Z,1.50
2019-05-28T20:33:32.134Z,1.60
2019-05-28T20:35:59.763Z,1.80
2019-05-28T20:38:27.818Z,1.80
2019-05-28T20:40:54.966Z,1.90
2019-05-28T20:43:21.765Z,2.00
2019-05-28T20:45:48.529Z,2.50
2019-05-28T20:48:15.250Z,2.90
2019-05-28T20:50:43.047Z,2.90
2019-05-28T20:53:10.019Z,3.50
2019-05-28T20:55:36.932Z,3.30
2019-05-28T20:58:04.023Z,3.27
2019-05-28T21:00:31.550Z,3.33
2019-05-28T21:02:58.268Z,3.10
2019-05-28T21:05:25.033Z,2.50
2019-05-28T21:07:53.125Z,3.40
2019-05-28T21:10:18.783Z,2.87
2019-05-28T21:12:45.517Z,2.70
2019-05-28T21:15:15.752Z,2.83
2019-05-28T21:17:39.060Z,2.80
2019-05-28T21:20:06.668Z,2.50
2019-05-28T21:22:33.450Z,2.53
2019-05-28T21:25:00.629Z,2.50
2019-05-28T21:27:27.669Z,2.10
2019-05-28T21:29:54.406Z,2.90
2019-05-28T21:32:21.143Z,2.70
2019-05-28T21:34:47.846Z,2.20
2019-05-28T21:37:14.720Z,2.60
2019-05-28T21:39:42.059Z,2.40
2019-05-28T21:42:08.912Z,2.07
2019-05-28T21:44:36.453Z,2.10
2019-05-28T21:47:03.193Z,2.47
2019-05-28T21:49:29.931Z,2.90
2019-05-28T21:51:56.894Z,2.53
2019-05-28T21:54:23.800Z,2.70
2019-05-28T21:56:51.408Z,2.57
2019-05-28T21:59:18.948Z,2.57
2019-05-28T22:01:45.907Z,2.73
2019-05-28T22:04:13.090Z,2.60
2019-05-28T22:06:40.111Z,2.60
2019-05-28T22:09:08.055Z,2.30
2019-05-28T22:11:33.945Z,2.37
2019-05-28T22:14:02.221Z,2.50
2019-05-28T22:16:28.820Z,2.23
2019-05-28T22:18:56.204Z,2.70
2019-05-28T22:21:22.599Z,2.70
2019-05-28T22:23:50.175Z,2.57
2019-05-28T22:26:17.037Z,2.50
2019-05-28T22:28:44.663Z,3.00
2019-05-28T22:31:14.857Z,2.73
2019-05-28T22:33:38.968Z,3.40
2019-05-28T22:36:05.907Z,3.10
2019-05-28T22:38:32.729Z,2.53
2019-05-28T22:41:00.387Z,2.30
2019-05-28T22:43:31.539Z,3.20
2019-05-28T22:45:53.245Z,2.70
2019-05-28T22:48:20.105Z,2.97
2019-05-28T22:50:46.941Z,2.80
2019-05-28T22:53:13.914Z,2.80
2019-05-28T22:55:40.801Z,3.63
2019-05-28T22:58:08.617Z,3.53
2019-05-28T23:00:35.167Z,3.10
2019-05-28T23:03:02.961Z,3.00
2019-05-28T23:05:30.082Z,2.80
2019-05-28T23:07:56.776Z,2.80
2019-05-28T23:10:23.532Z,2.70
2019-05-28T23:12:50.294Z,2.63
2019-05-28T23:15:17.767Z,3.10
2019-05-28T23:17:45.292Z,2.57
2019-05-28T23:20:12.367Z,2.90
2019-05-28T23:22:39.088Z,2.70
2019-05-28T23:25:07.561Z,2.90
2019-05-28T23:27:34.262Z,2.33
2019-05-28T23:30:10.596Z,2.70
2019-05-28T23:32:30.096Z,3.37
2019-05-28T23:34:56.870Z,2.90
2019-05-28T23:37:23.600Z,3.20
2019-05-28T23:39:50.323Z,3.30
2019-05-28T23:42:17.121Z,3.40
2019-05-28T23:44:43.846Z,3.20
2019-05-28T23:47:10.525Z,2.67
2019-05-28T23:49:38.067Z,3.17
2019-05-28T23:52:04.961Z,2.90
2019-05-28T23:54:31.546Z,3.63
2019-05-28T23:56:58.408Z,3.40
2019-05-28T23:59:25.846Z,3.00
